createdAt,value
2017-10-04T00:00:36.265Z,101309
2017-10-04T00:03:05.461Z,101302
2017-10-04T00:05:35.194Z,101302
2017-10-04T00:08:04.312Z,101308
2017-10-04T00:10:33.441Z,101308
2017-10-04T00:13:04.020Z,101305
2017-10-04T00:15:33.925Z,101310
2017-10-04T00:18:03.079Z,101313
2017-10-04T00:20:33.493Z,101317
2017-10-04T00:23:02.646Z,101317
2017-10-04T00:25:31.774Z,101319
2017-10-04T00:28:03.195Z,101322
2017-10-04T00:30:33.203Z,101325
2017-10-04T00:33:02.328Z,101322
2017-10-04T00:35:32.419Z,101326
2017-10-04T00:38:01.526Z,101330
2017-10-04T00:40:30.662Z,101330
2017-10-04T00:43:00.655Z,101322
2017-10-04T00:45:30.570Z,101327
2017-10-04T00:47:59.743Z,101320
2017-10-04T00:50:29.844Z,101317
2017-10-04T00:52:58.947Z,101307
2017-10-04T00:55:28.313Z,101312
2017-10-04T00:57:57.526Z,101310
2017-10-04T01:00:26.650Z,101313
2017-10-04T01:02:55.825Z,101309
2017-10-04T01:05:25.781Z,101301
2017-10-04T01:07:54.981Z,101300
2017-10-04T01:10:24.973Z,101287
2017-10-04T01:12:54.357Z,101285
2017-10-04T01:15:23.578Z,101282
2017-10-04T01:17:52.810Z,101281
2017-10-04T01:20:23.430Z,101280
2017-10-04T01:22:52.621Z,101285
2017-10-04T01:25:22.544Z,101282
2017-10-04T01:27:52.350Z,101276
2017-10-04T01:30:21.543Z,101284
2017-10-04T01:32:50.702Z,101291
2017-10-04T01:35:19.997Z,101292
2017-10-04T01:37:49.130Z,101299
2017-10-04T01:40:18.495Z,101297
2017-10-04T01:42:48.539Z,101294
2017-10-04T01:45:17.723Z,101302
2017-10-04T01:47:47.639Z,101303
2017-10-04T01:50:18.810Z,101297
2017-10-04T01:52:48.045Z,101304
2017-10-04T01:55:17.174Z,101294
2017-10-04T01:57:47.609Z,101291
2017-10-04T02:00:17.437Z,101282
2017-10-04T02:02:47.046Z,101280
2017-10-04T02:05:16.280Z,101272
2017-10-04T02:07:46.149Z,101278
2017-10-04T02:10:16.047Z,101267
2017-10-04T02:12:46.537Z,101269
2017-10-04T02:15:15.685Z,101262
2017-10-04T02:17:44.841Z,101268
2017-10-04T02:20:14.270Z,101267
2017-10-04T02:22:43.363Z,101262
2017-10-04T02:25:13.264Z,101256
2017-10-04T02:27:42.683Z,101252
2017-10-04T02:30:12.525Z,101254
2017-10-04T02:32:41.663Z,101254
2017-10-04T02:35:10.817Z,101255
2017-10-04T02:37:40.824Z,101262
2017-10-04T02:40:09.974Z,101257
2017-10-04T02:42:39.096Z,101251
2017-10-04T02:45:08.211Z,101256
2017-10-04T02:47:37.295Z,101243
2017-10-04T02:50:06.961Z,101240
2017-10-04T02:52:36.463Z,101236
2017-10-04T02:55:05.566Z,101230
2017-10-04T02:57:34.702Z,101234
2017-10-04T03:00:04.168Z,101234
2017-10-04T03:02:33.260Z,101232
2017-10-04T03:05:02.527Z,101220
2017-10-04T03:07:32.373Z,101212
2017-10-04T03:10:01.477Z,101213
2017-10-04T03:12:30.922Z,101210
2017-10-04T03:15:00.044Z,101212
2017-10-04T03:17:29.165Z,101212
2017-10-04T03:19:59.205Z,101209
2017-10-04T03:22:28.307Z,101194
2017-10-04T03:24:57.407Z,101192
2017-10-04T03:27:26.675Z,101195
2017-10-04T03:29:55.795Z,101195
2017-10-04T03:32:24.931Z,101193
2017-10-04T03:34:54.213Z,101186
2017-10-04T03:37:23.414Z,101178
2017-10-04T03:39:52.594Z,101172
2017-10-04T03:42:22.317Z,101172
2017-10-04T03:44:52.250Z,101172
2017-10-04T03:47:21.514Z,101169
2017-10-04T03:49:50.788Z,101161
2017-10-04T03:52:20.752Z,101151
2017-10-04T03:54:49.964Z,101152
2017-10-04T03:57:20.299Z,101150
2017-10-04T03:59:49.447Z,101142
2017-10-04T04:02:18.620Z,101144
2017-10-04T04:04:48.068Z,101145
2017-10-04T04:07:18.067Z,101153
2017-10-04T04:09:47.312Z,101148
2017-10-04T04:12:17.396Z,101140
2017-10-04T04:14:46.601Z,101148
2017-10-04T04:17:15.818Z,101147
2017-10-04T04:19:46.410Z,101148
2017-10-04T04:22:15.541Z,101151
2017-10-04T04:24:45.522Z,101153
2017-10-04T04:27:14.667Z,101149
2017-10-04T04:29:43.776Z,101140
2017-10-04T04:32:12.893Z,101134
2017-10-04T04:34:42.938Z,101115
2017-10-04T04:37:12.206Z,101111
2017-10-04T04:39:41.315Z,101117
2017-10-04T04:42:11.238Z,101123
2017-10-04T04:44:40.377Z,101119
2017-10-04T04:47:10.591Z,101127
2017-10-04T04:49:41.489Z,101130
2017-10-04T04:52:10.618Z,101126
2017-10-04T04:54:39.733Z,101115
2017-10-04T04:57:09.189Z,101115
2017-10-04T04:59:38.324Z,101109
2017-10-04T05:02:08.223Z,101111
2017-10-04T05:37:03.897Z,101091
2017-10-04T05:39:33.024Z,101093
2017-10-04T05:42:02.911Z,101097
2017-10-04T05:44:32.444Z,101098
2017-10-04T05:47:02.585Z,101092
2017-10-04T05:49:32.368Z,101098
2017-10-04T05:52:01.929Z,101108
2017-10-04T05:54:31.040Z,101110
2017-10-04T05:57:00.144Z,101095
2017-10-04T05:59:29.368Z,101100
2017-10-04T06:01:58.490Z,101101
2017-10-04T06:04:27.632Z,101101
2017-10-04T06:06:57.694Z,101098
2017-10-04T06:09:26.851Z,101103
2017-10-04T06:11:55.991Z,101108
2017-10-04T06:14:25.271Z,101116
2017-10-04T06:16:54.386Z,101108
2017-10-04T06:19:24.462Z,101123
2017-10-04T06:21:54.095Z,101121
2017-10-04T06:24:23.223Z,101110
2017-10-04T06:26:52.474Z,101115
2017-10-04T06:29:22.603Z,101110
2017-10-04T06:31:51.811Z,101103
2017-10-04T06:34:22.258Z,101102
2017-10-04T06:36:52.710Z,101085
2017-10-04T06:39:22.660Z,101089
2017-10-04T06:41:51.857Z,101090
2017-10-04T06:44:21.415Z,101086
2017-10-04T06:46:50.628Z,101088
2017-10-04T06:49:19.843Z,101087
2017-10-04T06:51:49.762Z,101085
2017-10-04T06:54:19.040Z,101084
2017-10-04T06:56:48.294Z,101085
2017-10-04T06:59:18.310Z,101075
2017-10-04T07:01:47.525Z,101077
2017-10-04T07:04:16.774Z,101079
2017-10-04T07:06:45.919Z,101079
2017-10-04T07:09:15.049Z,101077
2017-10-04T07:11:45.139Z,101075
2017-10-04T07:14:14.386Z,101065
2017-10-04T07:16:43.504Z,101077
2017-10-04T07:19:12.655Z,101084
2017-10-04T07:21:43.412Z,101066
2017-10-04T07:24:13.265Z,101067
2017-10-04T07:26:42.373Z,101062
2017-10-04T07:29:11.787Z,101057
2017-10-04T07:31:40.930Z,101062
2017-10-04T07:34:10.688Z,101044
2017-10-04T07:36:40.181Z,101040
2017-10-04T07:39:10.250Z,101041
2017-10-04T07:41:39.350Z,101048
2017-10-04T07:44:09.286Z,101055
2017-10-04T07:46:39.162Z,101050
2017-10-04T07:49:08.275Z,101051
2017-10-04T07:51:37.884Z,101060
2017-10-04T07:54:08.714Z,101053
2017-10-04T07:56:37.850Z,101055
2017-10-04T07:59:07.035Z,101057
2017-10-04T08:01:36.154Z,101058
2017-10-04T08:04:05.263Z,101059
2017-10-04T08:06:35.408Z,101070
2017-10-04T08:09:04.623Z,101064
2017-10-04T08:11:33.716Z,101066
2017-10-04T08:14:03.761Z,101053
2017-10-04T08:16:32.882Z,101045
2017-10-04T08:19:02.698Z,101044
2017-10-04T08:21:32.480Z,101034
2017-10-04T08:24:01.600Z,101030
2017-10-04T08:26:31.520Z,101036
2017-10-04T08:29:00.982Z,101022
2017-10-04T08:31:30.961Z,101016
2017-10-04T08:34:00.152Z,101010
2017-10-04T08:36:29.716Z,101004
2017-10-04T08:38:58.872Z,101007
2017-10-04T08:41:28.786Z,101005
2017-10-04T08:43:58.931Z,101003
2017-10-04T08:46:28.084Z,100998
2017-10-04T08:48:57.242Z,101000
2017-10-04T08:51:26.541Z,101010
2017-10-04T08:53:55.766Z,101011
2017-10-04T08:56:25.517Z,101008
2017-10-04T08:58:56.087Z,101005
2017-10-04T09:01:25.303Z,100998
2017-10-04T09:03:54.534Z,100991
2017-10-04T09:06:25.464Z,100991
2017-10-04T09:08:55.029Z,100991
2017-10-04T09:11:24.392Z,100990
2017-10-04T09:13:54.869Z,100989
2017-10-04T09:16:24.022Z,100984
2017-10-04T09:18:53.187Z,100979
2017-10-04T09:21:22.837Z,100982
2017-10-04T09:23:52.752Z,100984
2017-10-04T09:26:22.688Z,100980
2017-10-04T09:28:51.961Z,100974
2017-10-04T09:31:21.152Z,100966
2017-10-04T09:33:50.255Z,100969
2017-10-04T09:36:19.849Z,100962
2017-10-04T09:38:49.092Z,100957
2017-10-04T09:41:18.270Z,100955
2017-10-04T09:43:47.691Z,100952
2017-10-04T09:46:16.857Z,100954
2017-10-04T09:48:46.331Z,100953
2017-10-04T09:51:15.790Z,100950
2017-10-04T09:53:44.876Z,100952
2017-10-04T09:56:13.973Z,100949
2017-10-04T09:58:46.290Z,100946
2017-10-04T10:01:15.391Z,100952
2017-10-04T10:03:44.559Z,100952
2017-10-04T10:06:14.043Z,100960
2017-10-04T10:08:43.165Z,100950
2017-10-04T10:11:12.275Z,100941
2017-10-04T10:13:42.156Z,100947
2017-10-04T10:16:11.248Z,100944
2017-10-04T10:18:41.097Z,100938
2017-10-04T10:21:12.013Z,100935
2017-10-04T10:23:41.356Z,100948
2017-10-04T10:26:10.591Z,100949
2017-10-04T10:28:40.235Z,100947
2017-10-04T10:31:10.278Z,100949
2017-10-04T10:33:39.421Z,100952
2017-10-04T10:36:09.432Z,100956
2017-10-04T10:38:39.329Z,100940
2017-10-04T10:41:08.555Z,100940
2017-10-04T10:43:38.676Z,100928
2017-10-04T10:46:07.879Z,100928
2017-10-04T10:48:37.192Z,100915
2017-10-04T10:51:06.787Z,100913
2017-10-04T10:53:36.509Z,100920
2017-10-04T10:56:06.593Z,100917
2017-10-04T10:58:37.827Z,100918
2017-10-04T11:01:07.013Z,100912
2017-10-04T11:03:36.189Z,100908
2017-10-04T11:06:07.242Z,100914
2017-10-04T11:08:37.102Z,100897
2017-10-04T11:11:06.243Z,100892
2017-10-04T11:13:36.044Z,100892
2017-10-04T11:16:05.166Z,100892
2017-10-04T11:18:34.273Z,100884
2017-10-04T11:21:03.543Z,100883
2017-10-04T11:23:32.722Z,100883
2017-10-04T11:26:02.669Z,100882
2017-10-04T11:28:33.821Z,100873
2017-10-04T11:31:03.735Z,100869
2017-10-04T11:33:32.853Z,100866
2017-10-04T11:36:03.367Z,100860
2017-10-04T11:38:32.543Z,100870
2017-10-04T11:41:01.756Z,100857
2017-10-04T11:43:30.964Z,100857
2017-10-04T11:46:01.264Z,100842
2017-10-04T11:48:31.348Z,100847
2017-10-04T11:51:00.623Z,100849
2017-10-04T11:53:29.905Z,100835
2017-10-04T11:55:59.880Z,100846
2017-10-04T11:58:29.495Z,100856
2017-10-04T12:00:58.731Z,100845
2017-10-04T12:03:27.927Z,100832
2017-10-04T12:05:57.150Z,100831
2017-10-04T12:08:26.291Z,100822
2017-10-04T12:10:55.453Z,100826
2017-10-04T12:13:24.643Z,100831
2017-10-04T12:15:53.807Z,100820
2017-10-04T12:18:22.924Z,100831
2017-10-04T12:20:52.175Z,100819
2017-10-04T12:23:21.810Z,100823
2017-10-04T12:25:50.982Z,100818
2017-10-04T12:28:21.251Z,100814
2017-10-04T12:30:50.346Z,100801
2017-10-04T12:33:19.462Z,100812
2017-10-04T12:35:48.740Z,100798
2017-10-04T12:38:17.859Z,100792
2017-10-04T12:40:47.729Z,100785
2017-10-04T12:43:16.865Z,100786
2017-10-04T12:45:45.991Z,100786
2017-10-04T12:48:15.879Z,100776
2017-10-04T12:50:45.693Z,100771
2017-10-04T12:53:15.199Z,100765
2017-10-04T12:55:44.292Z,100764
2017-10-04T12:58:14.344Z,100767
2017-10-04T13:00:43.461Z,100763
2017-10-04T13:03:12.607Z,100744
2017-10-04T13:05:43.648Z,100750
2017-10-04T13:08:12.738Z,100738
2017-10-04T13:10:41.835Z,100740
2017-10-04T13:13:12.419Z,100754
2017-10-04T13:15:41.555Z,100751
2017-10-04T13:18:12.093Z,100754
2017-10-04T13:20:42.202Z,100741
2017-10-04T13:23:11.306Z,100744
2017-10-04T13:25:40.415Z,100733
2017-10-04T13:28:11.058Z,100737
2017-10-04T13:30:40.160Z,100732
2017-10-04T13:33:09.282Z,100717
2017-10-04T13:35:38.987Z,100721
2017-10-04T13:38:08.851Z,100713
2017-10-04T13:40:39.997Z,100732
2017-10-04T13:43:09.122Z,100739
2017-10-04T13:45:38.212Z,100733
2017-10-04T13:48:08.335Z,100736
2017-10-04T13:50:37.451Z,100741
2017-10-04T13:53:06.545Z,100738
2017-10-04T13:55:36.072Z,100727
2017-10-04T13:58:05.182Z,100725
2017-10-04T14:00:34.326Z,100730
2017-10-04T14:03:04.009Z,100724
2017-10-04T14:05:33.118Z,100715
2017-10-04T14:08:02.248Z,100713
2017-10-04T14:10:31.857Z,100712
2017-10-04T14:13:01.279Z,100713
2017-10-04T14:15:30.495Z,100710
2017-10-04T14:18:00.293Z,100711
2017-10-04T14:20:30.369Z,100707
2017-10-04T14:23:01.042Z,100709
2017-10-04T14:25:31.072Z,100690
2017-10-04T14:28:00.278Z,100686
2017-10-04T14:30:29.471Z,100682
2017-10-04T14:32:59.737Z,100676
2017-10-04T14:35:28.911Z,100676
2017-10-04T14:37:58.090Z,100683
2017-10-04T14:40:27.702Z,100685
2017-10-04T14:42:56.894Z,100683
2017-10-04T14:45:26.075Z,100684
2017-10-04T14:47:56.501Z,100667
2017-10-04T14:50:25.724Z,100674
2017-10-04T14:52:55.688Z,100658
2017-10-04T14:55:25.814Z,100667
2017-10-04T14:57:54.935Z,100663
2017-10-04T15:00:24.070Z,100662
2017-10-04T15:02:54.051Z,100657
2017-10-04T15:05:23.215Z,100668
2017-10-04T15:07:53.117Z,100667
2017-10-04T15:10:22.349Z,100675
2017-10-04T15:12:51.504Z,100670
2017-10-04T15:15:20.629Z,100659
2017-10-04T15:17:50.983Z,100649
2017-10-04T15:20:20.305Z,100654
2017-10-04T15:22:49.547Z,100647
2017-10-04T15:25:18.821Z,100648
2017-10-04T15:27:48.366Z,100653
2017-10-04T15:30:17.549Z,100651
2017-10-04T15:32:47.864Z,100651
2017-10-04T15:35:17.050Z,100636
2017-10-04T15:37:46.187Z,100640
2017-10-04T15:40:15.422Z,100629
2017-10-04T15:42:44.568Z,100625
2017-10-04T15:45:13.738Z,100630
2017-10-04T15:47:43.300Z,100627
2017-10-04T15:50:12.425Z,100636
2017-10-04T15:52:43.136Z,100631
2017-10-04T15:55:13.786Z,100627
2017-10-04T15:57:43.868Z,100628
2017-10-04T16:00:13.026Z,100627
2017-10-04T16:02:42.982Z,100624
2017-10-04T16:05:12.134Z,100628
2017-10-04T16:07:41.272Z,100615
2017-10-04T16:10:11.287Z,100616
2017-10-04T16:12:40.467Z,100608
2017-10-04T16:15:09.636Z,100598
2017-10-04T16:17:40.706Z,100603
2017-10-04T16:20:11.223Z,100601
2017-10-04T16:22:41.450Z,100587
2017-10-04T16:25:10.627Z,100597
2017-10-04T16:27:39.845Z,100590
2017-10-04T16:30:09.974Z,100593
2017-10-04T16:32:39.116Z,100596
2017-10-04T16:35:08.263Z,100598
2017-10-04T16:37:37.435Z,100582
2017-10-04T16:40:06.610Z,100581
2017-10-04T16:42:36.654Z,100605
2017-10-04T16:45:06.106Z,100620
2017-10-04T16:47:35.275Z,100602
2017-10-04T16:50:05.048Z,100578
2017-10-04T16:52:39.656Z,100574
2017-10-04T16:55:10.087Z,100565
2017-10-04T16:57:39.473Z,100552
2017-10-04T17:00:10.806Z,100543
2017-10-04T17:02:40.821Z,100551
2017-10-04T17:05:10.821Z,100543
2017-10-04T17:07:41.080Z,100553
2017-10-04T17:10:10.856Z,100547
2017-10-04T17:12:40.083Z,100540
2017-10-04T17:15:09.510Z,100549
2017-10-04T17:17:38.702Z,100553
2017-10-04T17:20:08.468Z,100560
2017-10-04T17:22:38.447Z,100564
2017-10-04T17:25:07.766Z,100564
2017-10-04T17:27:37.137Z,100558
2017-10-04T17:30:09.714Z,100564
2017-10-04T17:32:38.927Z,100550
2017-10-04T17:35:08.177Z,100558
2017-10-04T17:37:37.459Z,100558
2017-10-04T17:40:06.651Z,100541
2017-10-04T17:42:36.589Z,100532
2017-10-04T17:45:06.978Z,100570
2017-10-04T17:47:36.909Z,100590
2017-10-04T17:50:06.894Z,100561
2017-10-04T17:52:36.398Z,100561
2017-10-04T17:55:06.387Z,100560
2017-10-04T17:57:37.894Z,100569
2017-10-04T18:00:07.031Z,100567
2017-10-04T18:02:37.148Z,100580
2017-10-04T18:05:07.199Z,100577
2017-10-04T18:07:37.826Z,100575
2017-10-04T18:10:10.209Z,100560
2017-10-04T18:12:40.484Z,100546
2017-10-04T18:15:10.271Z,100542
2017-10-04T18:17:40.739Z,100530
2017-10-04T18:20:10.219Z,100532
2017-10-04T18:22:41.387Z,100534
2017-10-04T18:25:10.904Z,100534
2017-10-04T18:27:40.400Z,100524
2017-10-04T18:30:14.072Z,100520
2017-10-04T18:32:46.859Z,100532
2017-10-04T18:35:16.059Z,100536
2017-10-04T18:37:46.249Z,100527
2017-10-04T18:40:16.740Z,100540
2017-10-04T18:42:47.742Z,100520
2017-10-04T18:45:17.000Z,100524
2017-10-04T18:47:47.572Z,100554
2017-10-04T18:50:18.728Z,100556
2017-10-04T18:52:49.026Z,100557
2017-10-04T18:55:19.399Z,100537
2017-10-04T18:57:48.692Z,100600
2017-10-04T19:00:18.274Z,100588
2017-10-04T19:02:50.934Z,100588
2017-10-04T19:05:28.881Z,100565
2017-10-04T19:08:00.101Z,100546
2017-10-04T19:10:30.324Z,100545
2017-10-04T19:13:00.903Z,100540
2017-10-04T19:15:30.366Z,100541
2017-10-04T19:17:59.988Z,100542
2017-10-04T19:20:29.773Z,100552
2017-10-04T19:22:59.507Z,100553
2017-10-04T19:25:29.935Z,100568
2017-10-04T19:28:00.241Z,100557
2017-10-04T19:30:31.152Z,100558
2017-10-04T19:33:00.677Z,100555
2017-10-04T19:35:30.590Z,100549
2017-10-04T19:37:59.907Z,100543
2017-10-04T19:40:30.507Z,100551
2017-10-04T19:42:59.821Z,100551
2017-10-04T19:45:30.667Z,100562
2017-10-04T19:47:59.879Z,100563
2017-10-04T19:50:30.426Z,100567
2017-10-04T19:52:59.943Z,100572
2017-10-04T19:55:32.332Z,100576
2017-10-04T19:58:02.586Z,100567
2017-10-04T20:00:34.204Z,100563
2017-10-04T20:03:07.854Z,100556
2017-10-04T20:05:38.526Z,100542
2017-10-04T20:08:08.768Z,100546
2017-10-04T20:10:38.840Z,100546
2017-10-04T20:13:08.106Z,100544
2017-10-04T20:15:37.918Z,100542
2017-10-04T20:18:08.071Z,100536
2017-10-04T20:20:37.410Z,100508
2017-10-04T20:23:07.176Z,100536
2017-10-04T20:25:36.445Z,100534
2017-10-04T20:28:05.967Z,100537
2017-10-04T20:30:36.269Z,100533
2017-10-04T20:33:05.635Z,100535
2017-10-04T20:35:36.479Z,100531
2017-10-04T20:38:06.031Z,100533
2017-10-04T20:40:36.574Z,100517
2017-10-04T20:43:05.891Z,100520
2017-10-04T20:45:35.483Z,100504
2017-10-04T20:48:04.822Z,100512
2017-10-04T20:50:34.046Z,100509
2017-10-04T20:53:05.531Z,100509
2017-10-04T20:55:35.872Z,100500
2017-10-04T20:58:07.405Z,100503
2017-10-04T21:00:38.440Z,100507
2017-10-04T21:03:10.971Z,100506
2017-10-04T21:05:42.555Z,100500
2017-10-04T21:08:12.237Z,100503
2017-10-04T21:10:41.511Z,100510
2017-10-04T21:13:10.845Z,100506
2017-10-04T21:15:41.266Z,100513
2017-10-04T21:18:11.180Z,100506
2017-10-04T21:20:40.378Z,100506
2017-10-04T21:23:11.330Z,100499
2017-10-04T21:25:40.918Z,100494
2017-10-04T21:28:10.536Z,100495
2017-10-04T21:30:41.274Z,100493
2017-10-04T21:33:11.862Z,100508
2017-10-04T21:35:41.377Z,100507
2017-10-04T21:38:11.180Z,100506
2017-10-04T21:40:40.492Z,100498
2017-10-04T21:43:09.774Z,100507
2017-10-04T21:45:39.777Z,100492
2017-10-04T21:48:09.710Z,100488
2017-10-04T21:50:40.132Z,100485
2017-10-04T21:53:11.274Z,100488
2017-10-04T21:55:41.035Z,100481
2017-10-04T21:58:10.193Z,100487
2017-10-04T22:00:40.703Z,100483
2017-10-04T22:03:09.930Z,100479
2017-10-04T22:05:39.099Z,100484
2017-10-04T22:08:09.133Z,100491
2017-10-04T22:10:39.995Z,100489
2017-10-04T22:13:09.157Z,100480
2017-10-04T22:15:39.387Z,100478
2017-10-04T22:18:08.596Z,100470
2017-10-04T22:20:39.653Z,100462
2017-10-04T22:23:10.232Z,100466
2017-10-04T22:25:41.260Z,100454
2017-10-04T22:28:10.398Z,100451
2017-10-04T22:30:40.415Z,100451
2017-10-04T22:33:10.399Z,100445
2017-10-04T22:35:39.935Z,100440
2017-10-04T22:38:09.556Z,100441
2017-10-04T22:40:39.503Z,100437
2017-10-04T22:43:09.480Z,100431
2017-10-04T22:45:38.874Z,100429
2017-10-04T22:48:08.767Z,100414
2017-10-04T22:50:38.064Z,100411
2017-10-04T22:53:08.924Z,100408
2017-10-04T22:55:38.105Z,100399
2017-10-04T22:58:07.292Z,100402
2017-10-04T23:00:36.746Z,100403
2017-10-04T23:03:05.999Z,100406
2017-10-04T23:05:35.933Z,100399
2017-10-04T23:08:05.929Z,100393
2017-10-04T23:10:35.943Z,100391
2017-10-04T23:13:05.218Z,100392
2017-10-04T23:15:34.721Z,100392
2017-10-04T23:18:03.862Z,100386
2017-10-04T23:20:33.015Z,100391
2017-10-04T23:23:02.264Z,100384
2017-10-04T23:25:31.444Z,100366
2017-10-04T23:28:01.357Z,100347
2017-10-04T23:30:31.128Z,100363
2017-10-04T23:33:00.263Z,100374
2017-10-04T23:35:29.422Z,100380
2017-10-04T23:37:58.650Z,100378
2017-10-04T23:40:28.496Z,100372
2017-10-04T23:42:58.279Z,100370
2017-10-04T23:45:29.008Z,100368
2017-10-04T23:47:58.131Z,100354
2017-10-04T23:50:27.251Z,100359
2017-10-04T23:52:57.191Z,100350
2017-10-04T23:55:27.052Z,100340
2017-10-04T23:57:56.170Z,100327
